createdAt,value
2023-04-16T00:01:22.361Z,10.57
2023-04-16T00:03:51.955Z,12.57
2023-04-16T00:06:20.113Z,11.37
2023-04-16T00:08:48.002Z,10.20
2023-04-16T00:11:16.151Z,11.13
2023-04-16T00:13:44.131Z,11.53
2023-04-16T00:16:12.016Z,11.50
2023-04-16T00:18:40.129Z,11.60
2023-04-16T00:21:09.504Z,14.77
2023-04-16T00:23:37.977Z,12.87
2023-04-16T00:26:06.067Z,12.20
2023-04-16T00:28:33.934Z,12.60
2023-04-16T00:31:02.453Z,15.43
2023-04-16T00:33:30.927Z,10.97
2023-04-16T00:35:58.881Z,11.80
2023-04-16T00:38:30.452Z,11.67
2023-04-16T00:40:58.800Z,13.17
2023-04-16T00:43:27.869Z,11.20
2023-04-16T00:45:58.014Z,10.60
2023-04-16T00:48:27.863Z,10.07
2023-04-16T00:50:56.273Z,13.73
2023-04-16T00:53:24.708Z,11.93
2023-04-16T00:55:54.655Z,11.67
2023-04-16T00:58:23.000Z,12.07
2023-04-16T01:00:51.900Z,12.40
2023-04-16T01:03:19.876Z,11.67
2023-04-16T01:05:49.335Z,9.97
2023-04-16T01:08:18.261Z,11.67
2023-04-16T01:10:46.481Z,13.50
2023-04-16T01:13:15.861Z,10.53
2023-04-16T01:15:43.930Z,11.30
2023-04-16T01:18:16.161Z,13.20
2023-04-16T01:20:45.502Z,10.43
2023-04-16T01:23:13.737Z,11.57
2023-04-16T01:25:41.691Z,11.20
2023-04-16T01:28:09.722Z,9.13
2023-04-16T01:30:37.838Z,11.27
2023-04-16T01:33:30.751Z,9.33
2023-04-16T01:36:00.011Z,8.80
2023-04-16T01:38:27.871Z,8.90
2023-04-16T01:40:57.788Z,9.17
2023-04-16T01:43:25.656Z,8.20
2023-04-16T01:45:54.985Z,8.17
2023-04-16T01:48:23.053Z,8.07
2023-04-16T01:50:50.916Z,7.97
2023-04-16T01:53:20.129Z,8.20
2023-04-16T01:55:47.946Z,8.57
2023-04-16T01:58:15.909Z,8.87
2023-04-16T02:00:44.064Z,8.47
2023-04-16T02:03:12.234Z,6.97
2023-04-16T02:05:40.287Z,8.60
2023-04-16T02:08:08.255Z,5.83
2023-04-16T02:10:37.913Z,6.43
2023-04-16T02:13:06.084Z,6.13
2023-04-16T02:15:36.920Z,7.27
2023-04-16T02:18:04.907Z,8.87
2023-04-16T02:20:33.763Z,6.33
2023-04-16T02:23:01.810Z,7.43
2023-04-16T02:25:30.086Z,6.30
2023-04-16T02:28:00.487Z,7.63
2023-04-16T02:30:36.665Z,7.47
2023-04-16T02:33:07.270Z,7.40
2023-04-16T02:35:36.490Z,7.83
2023-04-16T02:38:05.386Z,8.37
2023-04-16T02:40:33.500Z,7.20
2023-04-16T02:43:02.669Z,6.90
2023-04-16T02:45:31.636Z,8.03
2023-04-16T02:48:00.617Z,9.30
2023-04-16T02:50:28.565Z,7.77
2023-04-16T02:52:56.453Z,7.63
2023-04-16T02:55:24.381Z,9.83
2023-04-16T02:57:52.935Z,7.17
2023-04-16T03:00:22.683Z,7.60
2023-04-16T03:02:50.819Z,7.77
2023-04-16T03:05:19.008Z,8.83
2023-04-16T03:07:47.794Z,9.17
2023-04-16T03:10:16.730Z,8.83
2023-04-16T03:12:44.574Z,7.53
2023-04-16T03:15:12.756Z,9.23
2023-04-16T03:17:42.026Z,8.83
2023-04-16T03:20:11.262Z,9.93
2023-04-16T03:22:39.534Z,9.37
2023-04-16T03:25:08.264Z,12.00
2023-04-16T03:27:36.522Z,10.83
2023-04-16T03:30:05.619Z,11.40
2023-04-16T03:32:36.124Z,10.90
2023-04-16T03:35:08.857Z,14.57
2023-04-16T03:37:38.220Z,11.53
2023-04-16T03:40:07.373Z,13.77
2023-04-16T03:42:35.723Z,13.43
2023-04-16T03:45:04.117Z,12.77
2023-04-16T03:47:33.032Z,11.97
2023-04-16T03:50:04.028Z,12.73
2023-04-16T03:52:33.250Z,11.13
2023-04-16T03:55:01.078Z,9.87
2023-04-16T03:57:31.695Z,10.77
2023-04-16T04:00:06.876Z,12.23
2023-04-16T04:02:54.586Z,13.67
2023-04-16T04:05:24.062Z,11.07
2023-04-16T04:07:54.481Z,12.83
2023-04-16T04:10:22.408Z,12.27
2023-04-16T04:12:50.401Z,10.87
2023-04-16T04:15:18.575Z,13.47
2023-04-16T04:17:46.491Z,9.97
2023-04-16T04:20:14.626Z,10.53
2023-04-16T04:22:45.554Z,13.40
2023-04-16T04:25:15.207Z,10.80
2023-04-16T04:27:44.174Z,10.07
2023-04-16T04:30:13.134Z,9.03
2023-04-16T04:32:42.378Z,9.47
2023-04-16T04:35:11.075Z,8.43
2023-04-16T04:37:38.996Z,8.60
2023-04-16T04:40:16.007Z,10.43
2023-04-16T04:42:44.336Z,7.27
2023-04-16T04:45:12.646Z,9.60
2023-04-16T04:47:42.097Z,8.27
2023-04-16T04:50:10.867Z,11.20
2023-04-16T04:52:39.181Z,9.83
2023-04-16T04:55:09.120Z,10.87
2023-04-16T04:57:38.393Z,9.03
2023-04-16T05:00:08.228Z,9.53
2023-04-16T05:02:44.745Z,12.30
2023-04-16T05:05:12.695Z,11.80
2023-04-16T05:07:40.554Z,9.67
2023-04-16T05:10:09.965Z,9.80
2023-04-16T05:12:40.006Z,10.60
2023-04-16T05:15:08.913Z,9.57
2023-04-16T05:17:36.778Z,13.20
2023-04-16T05:20:05.114Z,13.30
2023-04-16T05:22:32.957Z,14.30
2023-04-16T05:25:00.816Z,17.70
2023-04-16T05:27:28.731Z,20.07
2023-04-16T05:29:57.933Z,23.37
2023-04-16T05:32:27.867Z,27.43
2023-04-16T05:34:55.890Z,21.33
2023-04-16T05:37:23.768Z,23.00
2023-04-16T05:39:51.586Z,22.13
2023-04-16T05:42:19.419Z,21.63
2023-04-16T05:44:47.222Z,23.43
2023-04-16T05:47:17.392Z,21.10
2023-04-16T05:49:45.405Z,21.47
2023-04-16T05:52:13.444Z,25.87
2023-04-16T05:54:41.305Z,26.50
2023-04-16T05:57:09.152Z,27.00
2023-04-16T05:59:37.008Z,26.47
2023-04-16T06:02:04.944Z,31.30
2023-04-16T06:04:35.689Z,27.70
2023-04-16T06:07:03.554Z,26.27
2023-04-16T06:09:31.600Z,25.10
2023-04-16T06:11:59.469Z,30.93
2023-04-16T06:14:27.317Z,24.27
2023-04-16T06:16:55.191Z,26.17
2023-04-16T06:19:23.024Z,29.70
2023-04-16T06:21:52.378Z,28.00
2023-04-16T06:24:20.766Z,28.30
2023-04-16T06:26:48.593Z,31.83
2023-04-16T06:29:16.551Z,29.33
2023-04-16T06:31:44.590Z,30.23
2023-04-16T06:34:12.507Z,29.50
2023-04-16T06:36:40.374Z,31.77
2023-04-16T06:39:09.942Z,34.13
2023-04-16T06:41:40.294Z,30.97
2023-04-16T06:44:08.176Z,33.03
2023-04-16T06:46:36.340Z,36.87
2023-04-16T06:49:04.440Z,36.70
2023-04-16T06:51:32.578Z,38.93
2023-04-16T06:54:00.832Z,33.00
2023-04-16T06:56:30.023Z,37.80
2023-04-16T06:58:58.974Z,31.30
2023-04-16T07:01:27.002Z,37.30
2023-04-16T07:03:55.666Z,33.83
2023-04-16T07:06:23.720Z,33.80
2023-04-16T07:08:51.625Z,34.77
2023-04-16T07:11:20.873Z,33.70
2023-04-16T07:13:51.112Z,33.30
2023-04-16T07:16:19.115Z,31.80
2023-04-16T07:18:47.284Z,31.20
2023-04-16T07:21:15.123Z,34.20
2023-04-16T07:23:43.088Z,32.23
2023-04-16T07:26:11.663Z,31.27
2023-04-16T07:28:39.831Z,29.10
2023-04-16T07:31:09.379Z,30.43
2023-04-16T07:33:37.268Z,34.10
2023-04-16T07:36:05.561Z,27.40
2023-04-16T07:38:34.685Z,30.17
2023-04-16T07:41:02.769Z,29.67
2023-04-16T07:43:30.700Z,27.70
2023-04-16T07:45:59.516Z,30.77
2023-04-16T07:48:28.828Z,30.83
2023-04-16T07:50:56.871Z,26.37
2023-04-16T07:53:24.629Z,27.03
2023-04-16T07:55:52.493Z,26.83
2023-04-16T07:58:20.499Z,27.20
2023-04-16T08:00:50.383Z,29.60
2023-04-16T08:03:19.070Z,28.97
2023-04-16T08:05:48.342Z,27.97
2023-04-16T08:08:16.106Z,28.70
2023-04-16T08:10:44.056Z,26.60
2023-04-16T08:13:11.882Z,25.00
2023-04-16T08:15:39.858Z,29.00
2023-04-16T08:18:12.751Z,24.13
2023-04-16T08:20:40.709Z,28.43
2023-04-16T08:23:09.938Z,28.67
2023-04-16T08:25:37.770Z,26.43
2023-04-16T08:28:06.089Z,22.63
2023-04-16T08:30:34.703Z,24.93
2023-04-16T08:33:02.930Z,25.50
2023-04-16T08:35:30.955Z,25.93
2023-04-16T08:38:02.200Z,25.97
2023-04-16T08:40:33.654Z,25.90
2023-04-16T08:43:03.909Z,25.90
2023-04-16T08:45:36.008Z,29.50
2023-04-16T08:48:06.746Z,28.53
2023-04-16T08:50:34.966Z,41.43
2023-04-16T08:53:06.185Z,28.20
2023-04-16T08:55:38.537Z,28.60
2023-04-16T08:58:10.804Z,27.17
2023-04-16T09:00:39.016Z,27.03
2023-04-16T09:03:07.510Z,26.00
2023-04-16T09:05:36.142Z,29.93
2023-04-16T09:08:04.028Z,27.17
2023-04-16T09:10:32.321Z,25.50
2023-04-16T09:13:01.783Z,28.30
2023-04-16T09:15:30.201Z,23.53
2023-04-16T09:17:58.562Z,23.63
2023-04-16T09:20:26.407Z,22.37
2023-04-16T09:22:54.265Z,22.23
2023-04-16T09:25:23.500Z,20.93
2023-04-16T09:27:51.945Z,26.60
2023-04-16T09:30:23.157Z,24.47
2023-04-16T09:32:51.792Z,24.73
2023-04-16T09:35:20.414Z,23.20
2023-04-16T09:37:56.979Z,25.13
2023-04-16T09:40:30.578Z,24.47
2023-04-16T09:43:00.718Z,25.27
2023-04-16T09:45:33.971Z,26.70
2023-04-16T09:48:05.857Z,25.33
2023-04-16T09:50:34.321Z,26.50
2023-04-16T09:53:04.613Z,27.87
2023-04-16T09:55:33.972Z,27.57
2023-04-16T09:58:03.001Z,24.40
2023-04-16T10:00:32.828Z,25.27
2023-04-16T10:03:07.929Z,26.57
2023-04-16T10:05:36.578Z,28.50
2023-04-16T10:08:05.401Z,25.33
2023-04-16T10:10:33.694Z,33.07
2023-04-16T10:13:02.599Z,27.97
2023-04-16T10:15:30.656Z,23.57
2023-04-16T10:18:00.387Z,28.23
2023-04-16T10:20:28.757Z,31.60
2023-04-16T10:22:57.691Z,25.40
2023-04-16T10:25:26.219Z,28.53
2023-04-16T10:27:54.158Z,25.83
2023-04-16T10:30:22.816Z,29.77
2023-04-16T10:32:51.419Z,28.60
2023-04-16T10:35:21.971Z,25.77
2023-04-16T10:37:51.552Z,29.27
2023-04-16T10:40:27.021Z,26.73
2023-04-16T10:42:56.694Z,28.00
2023-04-16T10:45:31.198Z,27.03
2023-04-16T10:47:59.152Z,23.90
2023-04-16T10:50:35.669Z,25.87
2023-04-16T10:53:19.873Z,26.47
2023-04-16T10:56:13.495Z,22.13
2023-04-16T10:58:41.545Z,19.90
2023-04-16T11:01:13.663Z,22.07
2023-04-16T11:03:47.750Z,21.53
2023-04-16T11:06:19.077Z,26.20
2023-04-16T11:08:54.445Z,24.53
2023-04-16T11:11:23.308Z,18.80
2023-04-16T11:13:51.237Z,22.60
2023-04-16T11:16:19.097Z,18.93
2023-04-16T11:18:51.506Z,51.27
2023-04-16T11:21:21.516Z,25.20
2023-04-16T11:23:50.633Z,33.60
2023-04-16T11:26:26.330Z,24.57
2023-04-16T11:28:55.536Z,16.13
2023-04-16T11:31:24.384Z,17.43
2023-04-16T11:33:52.302Z,15.60
2023-04-16T11:36:21.486Z,14.73
2023-04-16T11:38:49.365Z,17.30
2023-04-16T11:41:23.464Z,14.73
2023-04-16T11:43:51.479Z,16.57
2023-04-16T11:46:27.459Z,15.60
2023-04-16T11:48:56.650Z,13.10
2023-04-16T11:51:25.946Z,15.33
2023-04-16T11:53:54.698Z,16.63
2023-04-16T11:56:29.410Z,15.17
2023-04-16T11:59:11.492Z,14.67
2023-04-16T12:01:41.246Z,14.80
2023-04-16T12:04:09.989Z,19.97
2023-04-16T12:06:39.635Z,13.17
2023-04-16T12:09:31.658Z,10.93
2023-04-16T12:11:59.481Z,13.20
2023-04-16T12:14:27.393Z,11.20
2023-04-16T12:16:55.397Z,11.70
2023-04-16T12:19:23.316Z,17.00
2023-04-16T12:21:54.621Z,10.03
2023-04-16T12:24:23.984Z,9.63
2023-04-16T12:26:58.022Z,8.00
2023-04-16T12:29:27.945Z,7.57
2023-04-16T12:31:55.765Z,6.60
2023-04-16T12:34:27.707Z,6.17
2023-04-16T12:37:13.592Z,5.67
2023-04-16T12:39:42.204Z,10.63
2023-04-16T12:42:11.390Z,6.60
2023-04-16T12:44:39.355Z,7.53
2023-04-16T12:47:07.223Z,4.33
2023-04-16T12:49:35.085Z,4.00
2023-04-16T12:52:03.507Z,6.07
2023-04-16T12:54:33.355Z,6.03
2023-04-16T12:57:01.272Z,4.30
2023-04-16T12:59:29.052Z,5.70
2023-04-16T13:01:57.017Z,7.40
2023-04-16T13:04:25.956Z,5.10
2023-04-16T13:06:54.071Z,5.37
2023-04-16T13:09:22.028Z,6.37
2023-04-16T13:11:51.404Z,4.70
2023-04-16T13:14:19.314Z,5.97
2023-04-16T13:16:47.168Z,5.80
2023-04-16T13:19:15.888Z,6.10
2023-04-16T13:21:43.866Z,9.80
2023-04-16T13:24:11.816Z,6.70
2023-04-16T13:26:39.633Z,5.60
2023-04-16T13:29:09.106Z,9.07
2023-04-16T13:31:37.331Z,7.00
2023-04-16T13:34:05.707Z,5.77
2023-04-16T13:36:34.085Z,5.37
2023-04-16T13:39:04.602Z,4.60
2023-04-16T13:41:32.553Z,5.53
2023-04-16T13:44:00.380Z,5.50
2023-04-16T13:46:30.263Z,5.70
2023-04-16T13:48:58.166Z,7.00
2023-04-16T13:51:27.439Z,8.27
2023-04-16T13:53:55.688Z,7.23
2023-04-16T13:56:23.670Z,7.13
2023-04-16T13:58:52.211Z,6.60
2023-04-16T14:01:20.188Z,10.47
2023-04-16T14:03:50.194Z,11.30
2023-04-16T14:06:18.503Z,8.80
2023-04-16T14:08:46.516Z,9.80
2023-04-16T14:11:14.450Z,7.23
2023-04-16T14:13:42.951Z,10.80
2023-04-16T14:16:10.816Z,9.17
2023-04-16T14:18:42.171Z,9.20
2023-04-16T14:21:11.328Z,14.90
2023-04-16T14:23:39.353Z,13.23
2023-04-16T14:26:07.156Z,12.13
2023-04-16T14:28:35.550Z,11.33
2023-04-16T14:31:03.421Z,12.07
2023-04-16T14:33:32.329Z,30.97
2023-04-16T14:36:02.783Z,13.30
2023-04-16T14:38:32.780Z,12.60
2023-04-16T14:41:01.234Z,11.90
2023-04-16T14:43:29.468Z,12.50
2023-04-16T14:45:58.664Z,15.50
2023-04-16T14:48:26.617Z,12.17
2023-04-16T14:50:54.970Z,12.10
2023-04-16T14:53:24.752Z,12.57
2023-04-16T14:55:54.355Z,13.90
2023-04-16T14:58:22.699Z,12.60
2023-04-16T15:00:50.576Z,14.67
2023-04-16T15:03:18.738Z,16.53
2023-04-16T15:05:50.778Z,16.90
2023-04-16T15:08:18.758Z,18.60
2023-04-16T15:10:46.621Z,19.17
2023-04-16T15:13:16.028Z,18.03
2023-04-16T15:15:44.531Z,18.47
2023-04-16T15:18:12.412Z,18.20
2023-04-16T15:20:40.659Z,18.47
2023-04-16T15:23:08.520Z,20.17
2023-04-16T15:25:36.563Z,19.27
2023-04-16T15:28:04.600Z,23.87
2023-04-16T15:30:34.023Z,22.90
2023-04-16T15:33:02.045Z,27.83
2023-04-16T15:35:29.893Z,31.97
2023-04-16T15:37:57.710Z,25.47
2023-04-16T15:40:25.907Z,29.23
2023-04-16T15:42:53.755Z,25.50
2023-04-16T15:45:21.898Z,21.23
2023-04-16T15:47:51.603Z,24.43
2023-04-16T15:50:20.129Z,20.53
2023-04-16T15:52:48.691Z,20.40
2023-04-16T15:55:17.978Z,19.63
2023-04-16T15:57:47.805Z,20.00
2023-04-16T16:00:17.245Z,21.23
2023-04-16T16:02:46.474Z,18.17
2023-04-16T16:05:16.819Z,17.23
2023-04-16T16:07:45.005Z,16.17
2023-04-16T16:10:13.984Z,17.17
2023-04-16T16:12:41.842Z,16.70
2023-04-16T16:15:11.140Z,17.97
2023-04-16T16:17:39.298Z,18.60
2023-04-16T16:20:10.424Z,17.83
2023-04-16T16:22:40.632Z,20.93
2023-04-16T16:25:10.172Z,22.43
2023-04-16T16:27:38.096Z,20.43
2023-04-16T16:30:07.537Z,19.37
2023-04-16T16:32:35.951Z,21.47
2023-04-16T16:35:04.303Z,22.87
2023-04-16T16:37:32.270Z,23.43
2023-04-16T16:40:01.402Z,23.67
2023-04-16T16:42:29.410Z,27.80
2023-04-16T16:44:57.603Z,30.17
2023-04-16T16:47:25.719Z,23.70
2023-04-16T16:49:54.661Z,28.60
2023-04-16T16:52:24.653Z,23.73
2023-04-16T16:54:52.512Z,26.50
2023-04-16T16:57:21.773Z,28.43
2023-04-16T16:59:50.392Z,24.20
2023-04-16T17:02:18.308Z,26.70
2023-04-16T17:04:46.297Z,28.73
2023-04-16T17:07:19.225Z,33.67
2023-04-16T17:09:47.080Z,33.60
2023-04-16T17:12:14.899Z,29.63
2023-04-16T17:14:44.093Z,28.87
2023-04-16T17:17:11.963Z,29.83
2023-04-16T17:19:39.983Z,34.73
2023-04-16T17:22:08.478Z,35.23
2023-04-16T17:24:36.481Z,35.50
2023-04-16T17:27:04.750Z,34.17
2023-04-16T17:29:32.623Z,35.33
2023-04-16T17:32:01.922Z,33.73
2023-04-16T17:34:29.850Z,36.47
2023-04-16T17:36:57.664Z,42.87
2023-04-16T17:39:25.484Z,35.70
2023-04-16T17:41:54.787Z,41.07
2023-04-16T17:44:25.587Z,42.73
2023-04-16T17:46:53.395Z,35.90
2023-04-16T17:49:22.789Z,41.70
2023-04-16T17:51:50.589Z,38.67
2023-04-16T17:54:18.409Z,48.47
2023-04-16T17:56:46.529Z,41.77
2023-04-16T17:59:14.387Z,42.70
2023-04-16T18:01:42.406Z,37.80
2023-04-16T18:04:10.863Z,39.10
2023-04-16T18:06:40.481Z,42.73
2023-04-16T18:09:08.354Z,40.43
2023-04-16T18:11:36.266Z,38.80
2023-04-16T18:14:04.090Z,37.57
2023-04-16T18:16:32.277Z,36.20
2023-04-16T18:19:00.120Z,39.00
2023-04-16T18:21:29.796Z,35.73
2023-04-16T18:24:00.861Z,38.50
2023-04-16T18:26:29.997Z,35.37
2023-04-16T18:28:57.939Z,31.33
2023-04-16T18:31:26.812Z,35.33
2023-04-16T18:33:58.049Z,30.30
2023-04-16T18:36:27.235Z,32.20
2023-04-16T18:41:28.206Z,35.30
2023-04-16T18:43:56.176Z,33.27
2023-04-16T18:46:24.121Z,30.53
2023-04-16T18:48:52.053Z,33.07
2023-04-16T18:51:19.982Z,31.10
2023-04-16T18:53:47.904Z,29.87
2023-04-16T18:56:15.680Z,29.93
2023-04-16T18:58:44.878Z,33.50
2023-04-16T19:01:13.958Z,30.63
2023-04-16T19:03:42.043Z,31.70
2023-04-16T19:06:10.732Z,30.33
2023-04-16T19:08:38.675Z,32.03
2023-04-16T19:11:06.656Z,33.90
2023-04-16T19:13:34.539Z,31.80
2023-04-16T19:16:06.004Z,31.47
2023-04-16T19:18:34.088Z,31.73
2023-04-16T19:21:02.152Z,35.53
2023-04-16T19:23:30.123Z,31.37
2023-04-16T19:25:58.003Z,31.03
2023-04-16T19:28:25.994Z,33.37
2023-04-16T19:30:54.269Z,34.33
2023-04-16T19:33:23.574Z,32.17
2023-04-16T19:35:51.417Z,33.13
2023-04-16T19:38:19.351Z,30.90
2023-04-16T19:40:49.285Z,31.27
2023-04-16T19:43:17.144Z,34.53
2023-04-16T19:45:45.102Z,37.50
2023-04-16T19:48:13.279Z,32.47
2023-04-16T19:50:43.513Z,34.97
2023-04-16T19:53:11.844Z,33.20
2023-04-16T19:55:40.576Z,32.70
2023-04-16T19:58:08.470Z,32.20
2023-04-16T20:00:38.460Z,33.63
2023-04-16T20:03:06.615Z,33.23
2023-04-16T20:05:34.457Z,32.87
2023-04-16T20:08:03.698Z,34.53
2023-04-16T20:10:31.948Z,33.40
2023-04-16T20:12:59.817Z,31.57
2023-04-16T20:15:27.746Z,32.80
2023-04-16T20:17:56.107Z,34.93
2023-04-16T20:20:24.175Z,36.97
2023-04-16T20:22:52.044Z,29.20
2023-04-16T20:25:21.628Z,33.77
2023-04-16T20:27:49.416Z,31.90
2023-04-16T20:30:17.376Z,33.80
2023-04-16T20:32:45.353Z,35.27
2023-04-16T20:35:13.164Z,39.77
2023-04-16T20:37:43.148Z,28.50
2023-04-16T20:40:13.845Z,33.17
2023-04-16T20:42:46.290Z,31.80
2023-04-16T20:45:14.433Z,28.80
2023-04-16T20:47:44.535Z,33.13
2023-04-16T20:50:12.632Z,31.97
2023-04-16T20:52:42.238Z,29.90
2023-04-16T20:55:10.857Z,31.13
2023-04-16T20:57:39.180Z,31.27
2023-04-16T21:00:12.070Z,29.00
2023-04-16T21:02:40.158Z,27.30
2023-04-16T21:05:10.469Z,28.43
2023-04-16T21:07:38.311Z,29.90
2023-04-16T21:10:07.079Z,30.37
2023-04-16T21:12:34.839Z,29.10
2023-04-16T21:15:02.954Z,24.47
2023-04-16T21:17:32.931Z,25.73
2023-04-16T21:20:01.947Z,27.27
2023-04-16T21:22:29.731Z,28.33
2023-04-16T21:24:57.588Z,23.90
2023-04-16T21:27:25.421Z,28.07
2023-04-16T21:29:53.177Z,22.63
2023-04-16T21:32:21.010Z,22.23
2023-04-16T21:34:50.156Z,23.37
2023-04-16T21:37:18.095Z,22.43
2023-04-16T21:39:46.155Z,23.40
2023-04-16T21:42:13.961Z,25.60
2023-04-16T21:44:41.839Z,24.00
2023-04-16T21:47:09.701Z,25.10
2023-04-16T21:49:37.482Z,25.77
2023-04-16T21:52:13.998Z,25.13
2023-04-16T21:54:42.113Z,24.10
2023-04-16T21:57:10.011Z,25.87
2023-04-16T21:59:37.982Z,24.80
2023-04-16T22:02:06.017Z,24.70
2023-04-16T22:04:38.547Z,29.60
2023-04-16T22:07:09.707Z,27.97
2023-04-16T22:09:37.647Z,25.80
2023-04-16T22:12:06.839Z,31.83
2023-04-16T22:14:35.901Z,28.77
2023-04-16T22:17:04.389Z,28.17
2023-04-16T22:19:32.363Z,26.33
2023-04-16T22:22:00.285Z,28.20
2023-04-16T22:24:29.497Z,27.43
2023-04-16T22:26:57.947Z,25.30
2023-04-16T22:29:25.887Z,29.90
2023-04-16T22:31:55.035Z,25.80
2023-04-16T22:34:22.923Z,25.70
2023-04-16T22:36:50.760Z,26.73
2023-04-16T22:39:18.796Z,28.93
2023-04-16T22:41:48.058Z,25.80
2023-04-16T22:44:15.984Z,31.47
2023-04-16T22:46:45.097Z,28.60
2023-04-16T22:49:13.137Z,31.37
2023-04-16T22:51:41.313Z,29.87
2023-04-16T22:54:13.655Z,27.33
2023-04-16T22:56:41.912Z,32.90
2023-04-16T22:59:11.313Z,27.63
2023-04-16T23:01:39.329Z,31.57
2023-04-16T23:04:07.171Z,28.20
2023-04-16T23:06:35.013Z,26.90
2023-04-16T23:09:03.420Z,28.43
2023-04-16T23:11:31.213Z,27.83
2023-04-16T23:13:59.018Z,29.80
2023-04-16T23:16:28.754Z,28.23
2023-04-16T23:18:56.704Z,28.20
2023-04-16T23:21:24.613Z,29.03
2023-04-16T23:23:52.775Z,26.23
2023-04-16T23:26:20.736Z,29.53
2023-04-16T23:28:48.511Z,28.17
2023-04-16T23:31:16.418Z,26.40
2023-04-16T23:33:45.668Z,26.53
2023-04-16T23:36:13.525Z,35.80
2023-04-16T23:38:41.353Z,28.63
2023-04-16T23:41:09.257Z,28.43
2023-04-16T23:43:39.970Z,30.47
2023-04-16T23:46:08.222Z,31.13
2023-04-16T23:48:36.192Z,27.93
2023-04-16T23:51:05.736Z,30.47
2023-04-16T23:53:33.581Z,28.93
2023-04-16T23:56:01.560Z,29.20
2023-04-16T23:58:29.455Z,26.40
